AOCHA weather

Altiporto Chamois
Chamois (AO), Valle d'Aosta, Italy

Public forecast

Using degrees Celsius for public forecast. Weather courtesy of forecast.io.

Closest aviation weather report (METAR) to Altiporto Chamois

Report is more than 2 hours old.

Closest report is Aosta Airport, 11.9 nm (22.1 km) WSW. Retrieved 2020/08/08 17:20 UTC (6 hours ago):

LIMW 081720Z AUTO 09015KT 9999 NCD 31/17 Q1018

Closest aviation forecast (TAF) to Altiporto Chamois

Closest forecast is Turin Airport, 38.0 nm (70.4 km) S. Retrieved 2020/08/08 18:00 UTC (5 hours ago):

TAF LIMF 081700Z 0818/0918 VRB05KT CAVOK